Flight Track Log - Related Links

Times and Time Zones

All times are in EDT time to prevent confusion due to time zone crossing. See the CSN3459 flight status page for this flight to view local times or setup timezone preferences in your user account.

Time Position Orientation Groundspeed Altitude Reporting Facility
EDT Latitude Longitude Course Direction KTS MPH feet Rate Location/Type
Mon 08:25:00 PM 22.6684 113.7035 286° West  Level Estimated
Mon 08:26:00 PM 22.6972 113.5945 286° West  Level Estimated
Mon 08:27:00 PM 22.7260 113.4855 286° West  Level Estimated
Mon 08:28:00 PM 22.7547 113.3764 286° West  Level Estimated
Mon 08:29:00 PM 22.7830 113.2684 286° West  Level Estimated
Mon 08:30:00 PM 22.8112 113.1604 286° West  Level Estimated
Mon 08:31:00 PM 22.8394 113.0523 286° West  Level Estimated
Mon 08:32:00 PM 22.8675 112.9441 286° West  Level Estimated
Mon 08:33:00 PM 22.8955 112.8359 286° West  Level Estimated
Mon 08:34:00 PM 22.9235 112.7277 286° West  Level Estimated
Mon 08:35:00 PM 22.9514 112.6194 286° West  Level Estimated
Mon 08:36:00 PM 22.9792 112.5111 286° West  Level Estimated
Mon 08:36:38 PM 22.1357 113.0627 211° Southwest 405 466 13,800  Level FlightAware ADS-B
Mon 08:37:00 PM 23.0069 112.4027 286° West  Level Estimated
Mon 08:37:17 PM 22.0759 113.0244 211° Southwest 404 465 13,800  Level FlightAware ADS-B
Mon 08:37:29 PM 22.0522 113.0063 224° Southwest 404 465 13,900 2,941 Climbing FlightAware ADS-B
Mon 08:38:08 PM 22.0180 112.9489 247° West 383 441 16,300 2,618 Climbing FlightAware ADS-B
Mon 08:39:19 PM 21.9698 112.8254 247° West 383 441 18,700 2,317 Climbing FlightAware ADS-B
Mon 08:39:49 PM 21.9457 112.7646 247° West 378 435 20,200 2,203 Climbing FlightAware ADS-B
Mon 08:40:38 PM 21.9168 112.6927 247° West 372 428 21,600 1,636 Climbing FlightAware ADS-B
Mon 08:41:17 PM 21.8850 112.6135 247° West 376 433 22,600 1,481 Climbing FlightAware ADS-B
Mon 08:41:59 PM 21.8593 112.5417 253° West 382 440 23,600 1,481 Climbing FlightAware ADS-B
Mon 08:42:38 PM 21.8389 112.4701 253° West 385 443 24,600 1,443 Climbing FlightAware ADS-B
Mon 08:43:18 PM 21.8174 112.3965 253° West 389 448 25,500 1,200 Climbing FlightAware ADS-B
Mon 08:43:58 PM 21.7959 112.3241 252° West 399 459 26,200 1,125 Climbing FlightAware ADS-B
Mon 08:44:38 PM 21.7714 112.2448 252° West 404 465 27,000 1,037 Climbing FlightAware ADS-B
Mon 08:45:19 PM 21.7480 112.1681 252° West 410 472 27,600 468 Climbing FlightAware ADS-B
Mon 08:45:55 PM 21.7255 112.0940 252° West 430 495 27,600  Level FlightAware ADS-B
Mon 08:48:00 PM 21.8069 111.8934 294° West  Level Estimated
Mon 08:49:00 PM 21.8460 111.7970 294° West  Level Estimated
Mon 08:50:00 PM 21.8849 111.7005 294° West  Level Estimated
Mon 08:51:00 PM 21.9238 111.6040 294° West  Level Estimated
Mon 08:52:00 PM 21.9627 111.5075 293° West  Level Estimated
Mon 08:53:00 PM 22.0015 111.4109 293° West  Level Estimated
Mon 08:54:00 PM 22.0402 111.3142 293° West  Level Estimated
Mon 08:55:00 PM 22.0789 111.2175 293° West  Level Estimated
Mon 08:56:00 PM 22.1176 111.1207 293° West  Level Estimated
Mon 08:57:00 PM 22.1561 111.0239 293° West  Level Estimated
Mon 08:58:00 PM 22.1946 110.9270 293° West  Level Estimated
Mon 08:59:00 PM 22.2331 110.8301 293° West  Level Estimated
Mon 09:00:00 PM 22.2715 110.7331 293° West  Level Estimated
Mon 09:01:00 PM 22.3098 110.6361 293° West  Level Estimated
Mon 09:02:00 PM 22.3481 110.5390 293° West  Level Estimated
Mon 09:03:00 PM 22.3864 110.4419 293° West  Level Estimated
Mon 09:04:00 PM 22.4245 110.3447 293° West  Level Estimated
Mon 09:05:00 PM 22.4626 110.2475 293° West  Level Estimated
Mon 09:06:00 PM 22.5007 110.1501 293° West  Level Estimated
Mon 09:07:00 PM 22.5387 110.0528 293° West  Level Estimated
Mon 09:08:00 PM 22.5766 109.9554 293° West  Level Estimated
Mon 09:09:00 PM 22.6145 109.8579 293° West  Level Estimated
Mon 09:10:00 PM 22.6523 109.7604 293° West  Level Estimated
Mon 09:11:00 PM 22.6901 109.6629 293° West  Level Estimated
Mon 09:12:00 PM 22.7278 109.5652 293° West  Level Estimated
Mon 09:13:00 PM 22.7654 109.4676 293° West  Level Estimated
Mon 09:14:00 PM 22.8030 109.3699 293° West  Level Estimated
Mon 09:15:00 PM 22.8405 109.2721 293° West  Level Estimated
Mon 09:16:00 PM 22.8780 109.1742 293° West  Level Estimated
Mon 09:17:00 PM 22.9154 109.0763 293° West  Level Estimated
Mon 09:18:00 PM 22.9527 108.9784 293° West  Level Estimated
Mon 09:19:00 PM 22.9900 108.8804 292° West  Level Estimated
Mon 09:20:00 PM 23.0272 108.7824 292° West  Level Estimated
Mon 09:21:00 PM 23.0644 108.6842 292° West  Level Estimated
Mon 09:22:00 PM 23.1015 108.5861 292° West  Level Estimated
Mon 09:23:00 PM 23.1385 108.4879 292° West  Level Estimated
Mon 09:24:00 PM 23.1755 108.3896 292° West  Level Estimated
Mon 09:25:00 PM 23.2124 108.2913 292° West  Level Estimated
Mon 09:26:00 PM 23.2493 108.1929 292° West  Level Estimated
Mon 09:27:00 PM 23.2861 108.0945 292° West  Level Estimated
Mon 09:28:00 PM 23.3228 107.9960 292° West  Level Estimated
Mon 09:29:00 PM 23.3594 107.8975 292° West  Level Estimated
Mon 09:30:00 PM 23.3961 107.7989 292° West  Level Estimated
Mon 09:31:00 PM 23.4326 107.7002 292° West  Level Estimated
Mon 09:32:00 PM 23.4691 107.6015 292° West  Level Estimated
Mon 09:33:00 PM 23.5055 107.5028 292° West  Level Estimated
Mon 09:34:00 PM 23.5419 107.4040 292° West  Level Estimated
Mon 09:35:00 PM 23.5782 107.3051 292° West  Level Estimated
Mon 09:36:00 PM 23.6144 107.2062 292° West  Level Estimated
Mon 09:37:00 PM 23.6506 107.1072 292° West  Level Estimated
Mon 09:38:00 PM 23.6867 107.0082 292° West  Level Estimated
Mon 09:39:00 PM 23.7227 106.9091 292° West  Level Estimated
Mon 09:40:00 PM 23.7587 106.8100 292° West  Level Estimated
Mon 09:41:00 PM 23.7947 106.7107 292° West  Level Estimated
Mon 09:42:00 PM 23.8305 106.6115 292° West  Level Estimated
Mon 09:43:00 PM 23.8663 106.5122 292° West  Level Estimated
Mon 09:44:00 PM 23.9020 106.4128 291° West  Level Estimated
Mon 09:45:00 PM 23.9377 106.3134 291° West  Level Estimated
Mon 09:46:00 PM 23.9733 106.2140 291° West  Level Estimated
Mon 09:47:00 PM 24.0089 106.1144 291° West  Level Estimated
Mon 09:48:00 PM 24.0443 106.0149 291° West  Level Estimated
Mon 09:49:00 PM 24.0797 105.9152 291° West  Level Estimated
Mon 09:50:00 PM 24.1151 105.8155 291° West  Level Estimated
Mon 09:51:00 PM 24.1504 105.7158 291° West  Level Estimated
Mon 09:52:00 PM 24.1856 105.6160 291° West  Level Estimated
Mon 09:53:00 PM 24.2207 105.5161 291° West  Level Estimated
Mon 09:54:00 PM 24.2558 105.4162 291° West  Level Estimated
Mon 09:55:00 PM 24.2908 105.3163 291° West  Level Estimated
Mon 09:56:00 PM 24.3258 105.2162 291° West  Level Estimated
Mon 09:57:00 PM 24.3607 105.1162 291° West  Level Estimated
Mon 09:58:00 PM 24.3955 105.0161 291° West  Level Estimated
Mon 09:59:00 PM 24.4303 104.9159 291° West  Level Estimated
Mon 10:00:00 PM 24.4650 104.8156 291° West  Level Estimated
Mon 10:01:00 PM 24.4996 104.7153 291° West  Level Estimated
Mon 10:02:00 PM 24.5341 104.6150 291° West  Level Estimated
Mon 10:03:00 PM 24.5686 104.5146 291° West  Level Estimated
Mon 10:04:00 PM 24.6031 104.4141 291° West  Level Estimated
Mon 10:05:00 PM 24.6374 104.3136 291° West  Level Estimated
Mon 10:06:00 PM 24.6717 104.2130 291° West  Level Estimated
Mon 10:07:00 PM 24.7059 104.1124 291° West  Level Estimated
Mon 10:08:00 PM 24.7401 104.0117 291° West  Level Estimated
Mon 10:09:00 PM 24.7742 103.9110 290° West  Level Estimated
Mon 10:10:00 PM 24.8082 103.8102 290° West  Level Estimated
Mon 10:11:00 PM 24.8422 103.7094 290° West  Level Estimated
Mon 10:12:00 PM 24.8761 103.6085 290° West  Level Estimated
Mon 10:13:00 PM 24.9099 103.5075 290° West  Level Estimated
Mon 10:14:00 PM 24.9436 103.4065 290° West  Level Estimated
Mon 10:15:00 PM 24.9773 103.3054 290° West  Level Estimated
Mon 10:16:00 PM 25.0109 103.2043 290° West  Level Estimated
Mon 10:17:00 PM 25.0445 103.1031 290° West  Level Estimated
Mon 10:18:00 PM 25.0779 103.0019 290° West  Level Estimated
Mon 10:19:00 PM 25.1019 102.9292 290° West  Level Estimated

Login

Don't have an account? Register now (free) for customized features, flight alerts, and more!